14G weather

Fremont Airport
Fremont, Ohio, United States

Public forecast

Using degrees Fahrenheit for public forecast. Weather courtesy of forecast.io.

METAR (pilot weather report)

Closest report is Carl R Keller Field, 17.2 nm (31.8 km) NE. Retrieved 2019/05/19 22:35 UTC (0 seconds ago):

KPCW 192235Z AUTO 18010KT 6SM -RA FEW033 FEW050 SCT070 16/15 A2976 RMK AO2

TAF (pilot weather forecast)

Closest forecast is Findlay Airport, 29.9 nm (55.4 km) SW. Retrieved 2019/05/19 18:42 UTC (4 hours ago):

TAF KFDY 191739Z 1918/2018 20020G32KT P6SM -SHRA BKN050 OVC070 TEMPO 1919/1920 22022G35KT 5SM -TSRA BKN035CB FM192300 22018G28KT P6SM VCSH SCT050 OVC090 FM200300 21014KT P6SM BKN090 FM201000 26013KT P6SM BKN030